createdAt,value
2019-03-10T00:00:35.017Z,11.45
2019-03-10T00:01:40.741Z,11.46
2019-03-10T00:02:45.931Z,11.44
2019-03-10T00:03:51.204Z,11.45
2019-03-10T00:04:56.339Z,11.44
2019-03-10T00:06:01.562Z,11.46
2019-03-10T00:07:06.656Z,11.44
2019-03-10T00:08:11.967Z,11.45
2019-03-10T00:09:17.624Z,11.44
2019-03-10T00:10:22.702Z,11.45
2019-03-10T00:11:27.917Z,11.45
2019-03-10T00:12:33.141Z,11.44
2019-03-10T00:13:38.311Z,11.43
2019-03-10T00:14:43.452Z,11.41
2019-03-10T00:15:48.854Z,11.40
2019-03-10T00:16:53.931Z,11.38
2019-03-10T00:17:59.054Z,11.38
2019-03-10T00:19:04.089Z,11.38
2019-03-10T00:20:09.259Z,11.36
2019-03-10T00:21:15.141Z,11.35
2019-03-10T00:22:20.413Z,11.33
2019-03-10T00:23:25.535Z,11.31
2019-03-10T00:24:30.748Z,11.30
2019-03-10T00:25:35.912Z,11.29
2019-03-10T00:26:41.051Z,11.26
2019-03-10T00:27:46.464Z,11.27
2019-03-10T00:28:51.921Z,11.27
2019-03-10T00:29:57.011Z,11.23
2019-03-10T00:31:02.166Z,11.27
2019-03-10T00:32:07.608Z,11.28
2019-03-10T00:33:12.752Z,11.27
2019-03-10T00:34:18.158Z,11.28
2019-03-10T00:35:23.411Z,11.29
2019-03-10T00:36:28.640Z,11.29
2019-03-10T00:37:33.856Z,11.28
2019-03-10T00:38:51.912Z,11.28
2019-03-10T00:40:38.088Z,11.29
2019-03-10T00:42:10.907Z,11.28
2019-03-10T00:44:02.823Z,11.28
2019-03-10T00:45:43.913Z,11.27
2019-03-10T00:47:25.834Z,11.24
2019-03-10T00:49:13.453Z,11.21
2019-03-10T00:51:13.818Z,11.17
2019-03-10T00:52:32.305Z,11.12
2019-03-10T00:53:37.423Z,11.19
2019-03-10T00:54:42.497Z,11.19
2019-03-10T00:55:47.652Z,11.18
2019-03-10T00:56:53.052Z,11.17
2019-03-10T00:57:58.551Z,11.18
2019-03-10T00:59:03.681Z,11.18
2019-03-10T01:00:15.149Z,11.19
2019-03-10T01:01:20.311Z,11.20
2019-03-10T01:02:25.444Z,11.22
2019-03-10T01:03:30.648Z,11.21
2019-03-10T01:04:35.693Z,11.24
2019-03-10T01:05:40.859Z,11.25
2019-03-10T01:06:46.058Z,11.27
2019-03-10T01:07:51.192Z,11.27
2019-03-10T01:08:56.345Z,11.28
2019-03-10T01:10:01.517Z,11.28
2019-03-10T01:11:06.660Z,11.28
2019-03-10T01:12:11.886Z,11.29
2019-03-10T01:13:17.366Z,11.30
2019-03-10T01:14:22.509Z,11.29
2019-03-10T01:15:27.612Z,11.31
2019-03-10T01:16:33.436Z,11.30
2019-03-10T01:17:39.174Z,11.32
2019-03-10T01:18:48.840Z,11.32
2019-03-10T01:19:54.329Z,11.33
2019-03-10T01:21:02.380Z,11.34
2019-03-10T01:22:07.521Z,11.35
2019-03-10T01:23:12.887Z,11.36
2019-03-10T01:24:18.084Z,11.34
2019-03-10T01:25:23.182Z,11.34
2019-03-10T01:26:28.525Z,11.39
2019-03-10T01:27:33.703Z,11.39
2019-03-10T01:28:39.012Z,11.38
2019-03-10T01:29:44.126Z,11.38
2019-03-10T01:31:09.918Z,11.38
2019-03-10T01:32:30.015Z,11.39
2019-03-10T01:34:06.733Z,11.40
2019-03-10T01:35:17.565Z,11.38
2019-03-10T01:36:21.115Z,11.37
2019-03-10T01:37:26.137Z,11.35
2019-03-10T01:38:31.151Z,11.35
2019-03-10T01:39:36.361Z,11.35
2019-03-10T01:40:41.491Z,11.34
2019-03-10T01:41:46.793Z,11.34
2019-03-10T01:42:51.856Z,11.34
2019-03-10T01:43:56.941Z,11.35
2019-03-10T01:45:01.985Z,11.35
2019-03-10T01:46:07.206Z,11.33
2019-03-10T01:47:12.271Z,11.34
2019-03-10T01:48:17.812Z,11.35
2019-03-10T01:49:22.857Z,11.32
2019-03-10T01:50:27.974Z,11.35
2019-03-10T01:51:33.048Z,11.36
2019-03-10T01:52:38.183Z,11.37
2019-03-10T01:53:43.688Z,11.38
2019-03-10T01:54:48.885Z,11.38
2019-03-10T01:55:54.033Z,11.39
2019-03-10T01:56:59.063Z,11.40
2019-03-10T01:58:04.224Z,11.41
2019-03-10T01:59:09.285Z,11.43
2019-03-10T02:00:16.227Z,11.43
2019-03-10T02:01:21.405Z,11.43
2019-03-10T02:02:26.489Z,11.43
2019-03-10T02:03:31.576Z,11.43
2019-03-10T02:04:36.571Z,11.43
2019-03-10T02:05:41.608Z,11.45
2019-03-10T02:06:46.692Z,11.46
2019-03-10T02:07:51.799Z,11.46
2019-03-10T02:08:56.850Z,11.46
2019-03-10T02:10:02.217Z,11.46
2019-03-10T02:11:07.358Z,11.46
2019-03-10T02:12:12.376Z,11.47
2019-03-10T02:13:17.366Z,11.50
2019-03-10T02:14:22.692Z,11.51
2019-03-10T02:15:27.805Z,11.51
2019-03-10T02:16:32.837Z,11.52
2019-03-10T02:17:37.866Z,11.53
2019-03-10T02:18:42.992Z,11.52
2019-03-10T02:19:48.454Z,11.53
2019-03-10T02:20:53.605Z,11.53
2019-03-10T02:21:58.767Z,11.52
2019-03-10T02:23:03.899Z,11.52
2019-03-10T02:24:08.953Z,11.53
2019-03-10T02:25:14.379Z,11.54
2019-03-10T02:26:19.468Z,11.54
2019-03-10T02:27:24.628Z,11.55
2019-03-10T02:28:29.704Z,11.54
2019-03-10T02:29:34.803Z,11.54
2019-03-10T02:30:39.985Z,11.56
2019-03-10T02:31:45.299Z,11.55
2019-03-10T02:32:50.445Z,11.55
2019-03-10T02:33:55.852Z,11.55
2019-03-10T02:35:01.099Z,11.56
2019-03-10T02:36:06.475Z,11.52
2019-03-10T02:37:11.552Z,11.54
2019-03-10T02:38:16.604Z,11.54
2019-03-10T02:39:21.731Z,11.52
2019-03-10T02:40:26.859Z,11.50
2019-03-10T02:41:31.913Z,11.49
2019-03-10T02:42:36.942Z,11.45
2019-03-10T02:43:42.044Z,11.44
2019-03-10T02:44:47.026Z,11.43
2019-03-10T02:45:52.515Z,11.40
2019-03-10T02:46:57.503Z,11.39
2019-03-10T02:48:02.672Z,11.39
2019-03-10T02:49:07.802Z,11.37
2019-03-10T02:50:12.947Z,11.35
2019-03-10T02:51:18.065Z,11.34
2019-03-10T02:52:23.772Z,11.32
2019-03-10T02:53:28.827Z,11.31
2019-03-10T02:54:33.969Z,11.30
2019-03-10T02:55:39.294Z,11.29
2019-03-10T02:56:44.384Z,11.29
2019-03-10T02:57:49.506Z,11.28
2019-03-10T02:58:54.877Z,11.28
2019-03-10T02:59:59.980Z,11.29
2019-03-10T03:01:05.129Z,11.29
2019-03-10T03:02:10.269Z,11.28
2019-03-10T03:03:15.497Z,11.28
2019-03-10T03:04:20.640Z,11.29
2019-03-10T03:05:25.696Z,11.28
2019-03-10T03:06:30.911Z,11.26
2019-03-10T03:07:36.039Z,11.21
2019-03-10T03:08:41.160Z,11.24
2019-03-10T03:09:46.239Z,11.24
2019-03-10T03:10:51.305Z,11.23
2019-03-10T03:11:56.488Z,11.22
2019-03-10T03:13:01.562Z,11.21
2019-03-10T03:14:06.706Z,11.22
2019-03-10T03:15:12.257Z,11.23
2019-03-10T03:16:17.417Z,11.24
2019-03-10T03:17:22.373Z,11.24
2019-03-10T03:18:27.542Z,11.26
2019-03-10T03:19:32.585Z,11.22
2019-03-10T03:20:37.824Z,11.24
2019-03-10T03:21:43.963Z,11.26
2019-03-10T03:22:50.017Z,11.25
2019-03-10T03:23:55.059Z,11.25
2019-03-10T03:25:00.451Z,11.25
2019-03-10T03:26:05.653Z,11.25
2019-03-10T03:27:10.794Z,11.23
2019-03-10T03:28:15.858Z,11.21
2019-03-10T03:29:20.829Z,11.20
2019-03-10T03:30:26.139Z,11.16
2019-03-10T03:31:31.197Z,11.16
2019-03-10T03:32:36.778Z,11.14
2019-03-10T03:33:41.844Z,11.13
2019-03-10T03:34:46.794Z,11.12
2019-03-10T03:36:03.255Z,11.12
2019-03-10T03:37:10.290Z,11.14
2019-03-10T03:38:15.699Z,11.13
2019-03-10T03:39:41.817Z,11.11
2019-03-10T03:40:49.882Z,11.10
2019-03-10T03:41:55.001Z,11.09
2019-03-10T03:43:00.021Z,11.10
2019-03-10T03:44:05.165Z,11.08
2019-03-10T03:45:10.383Z,11.06
2019-03-10T03:46:15.532Z,11.04
2019-03-10T03:47:20.622Z,11.02
2019-03-10T03:48:25.700Z,11.01
2019-03-10T03:49:30.839Z,11.01
2019-03-10T03:50:35.801Z,10.99
2019-03-10T03:51:40.933Z,11.00
2019-03-10T03:52:46.017Z,10.97
2019-03-10T03:53:51.324Z,10.98
2019-03-10T03:54:56.328Z,10.98
2019-03-10T03:56:01.576Z,10.97
2019-03-10T03:57:06.609Z,10.96
2019-03-10T03:58:11.990Z,10.95
2019-03-10T03:59:17.106Z,10.91
2019-03-10T04:00:22.212Z,10.95
2019-03-10T04:01:33.307Z,10.93
2019-03-10T04:02:39.557Z,10.91
2019-03-10T04:03:45.180Z,10.87
2019-03-10T04:04:50.420Z,10.83
2019-03-10T04:05:55.497Z,10.83
2019-03-10T04:07:00.539Z,10.83
2019-03-10T04:08:05.930Z,10.81
2019-03-10T04:09:11.060Z,10.79
2019-03-10T04:10:16.186Z,10.73
2019-03-10T04:11:21.292Z,10.72
2019-03-10T04:12:26.421Z,10.71
2019-03-10T04:13:31.520Z,10.69
2019-03-10T04:14:36.529Z,10.70
2019-03-10T04:15:41.568Z,10.68
2019-03-10T04:16:46.622Z,10.64
2019-03-10T04:17:51.723Z,10.62
2019-03-10T04:18:57.037Z,10.59
2019-03-10T04:20:02.026Z,10.56
2019-03-10T04:21:07.057Z,10.56
2019-03-10T04:22:12.021Z,10.53
2019-03-10T04:23:17.286Z,10.51
2019-03-10T04:24:22.333Z,10.49
2019-03-10T04:25:27.423Z,10.48
2019-03-10T04:26:32.884Z,10.48
2019-03-10T04:27:37.850Z,10.41
2019-03-10T04:28:42.948Z,10.43
2019-03-10T04:29:48.279Z,10.41
2019-03-10T04:30:53.303Z,10.40
2019-03-10T04:31:58.426Z,10.37
2019-03-10T04:33:03.542Z,10.37
2019-03-10T04:34:08.581Z,10.38
2019-03-10T04:35:13.653Z,10.36
2019-03-10T04:36:18.871Z,10.34
2019-03-10T04:37:23.826Z,10.31
2019-03-10T04:38:28.952Z,10.32
2019-03-10T04:39:34.035Z,10.32
2019-03-10T04:40:39.083Z,10.34
2019-03-10T04:41:44.224Z,10.33
2019-03-10T04:42:49.275Z,10.33
2019-03-10T04:43:54.384Z,10.33
2019-03-10T04:44:59.489Z,10.27
2019-03-10T04:46:04.642Z,10.27
2019-03-10T04:47:09.692Z,10.32
2019-03-10T04:48:14.813Z,10.31
2019-03-10T04:49:20.124Z,10.31
2019-03-10T04:50:25.477Z,10.32
2019-03-10T04:51:30.587Z,10.32
2019-03-10T04:52:35.760Z,10.32
2019-03-10T04:53:41.427Z,10.30
2019-03-10T04:55:17.333Z,10.29
2019-03-10T04:56:44.152Z,10.28
2019-03-10T04:58:00.819Z,10.27
2019-03-10T04:59:05.831Z,10.27
2019-03-10T05:00:11.066Z,10.28
2019-03-10T05:01:16.173Z,10.24
2019-03-10T05:02:21.533Z,10.24
2019-03-10T05:03:26.756Z,10.24
2019-03-10T05:04:32.207Z,10.26
2019-03-10T05:05:37.350Z,10.26
2019-03-10T05:06:42.669Z,10.23
2019-03-10T05:07:47.737Z,10.23
2019-03-10T05:08:53.051Z,10.18
2019-03-10T05:09:58.418Z,10.18
2019-03-10T05:11:03.487Z,10.24
2019-03-10T05:12:08.582Z,10.27
2019-03-10T05:13:13.693Z,10.27
2019-03-10T05:14:18.931Z,10.28
2019-03-10T05:15:24.266Z,10.22
2019-03-10T05:16:29.598Z,10.29
2019-03-10T05:17:34.634Z,10.29
2019-03-10T05:18:39.658Z,10.30
2019-03-10T05:19:44.791Z,10.29
2019-03-10T05:20:50.562Z,10.31
2019-03-10T05:21:55.771Z,10.33
2019-03-10T05:23:31.547Z,10.32
2019-03-10T05:24:36.757Z,10.32
2019-03-10T05:25:42.093Z,10.32
2019-03-10T05:26:47.471Z,10.32
2019-03-10T05:27:52.639Z,10.34
2019-03-10T05:28:57.931Z,10.35
2019-03-10T05:30:03.061Z,10.36
2019-03-10T05:31:08.204Z,10.37
2019-03-10T05:32:13.743Z,10.40
2019-03-10T05:33:18.865Z,10.40
2019-03-10T05:34:23.981Z,10.40
2019-03-10T05:35:28.944Z,10.40
2019-03-10T05:36:34.251Z,10.38
2019-03-10T05:37:39.598Z,10.32
2019-03-10T05:38:45.368Z,10.32
2019-03-10T05:39:50.977Z,10.35
2019-03-10T05:40:56.350Z,10.34
2019-03-10T05:42:01.356Z,10.30
2019-03-10T05:43:06.423Z,10.33
2019-03-10T05:44:11.481Z,10.34
2019-03-10T05:45:16.523Z,10.34
2019-03-10T05:46:21.660Z,10.31
2019-03-10T05:47:26.675Z,10.33
2019-03-10T05:48:31.742Z,10.30
2019-03-10T05:49:36.938Z,10.34
2019-03-10T05:50:42.066Z,10.34
2019-03-10T05:51:47.094Z,10.32
2019-03-10T05:53:00.685Z,10.31
2019-03-10T05:54:05.404Z,10.31
2019-03-10T05:55:10.918Z,10.30
2019-03-10T05:56:16.224Z,10.31
2019-03-10T05:57:21.299Z,10.27
2019-03-10T05:58:26.574Z,10.25
2019-03-10T05:59:31.618Z,10.30
2019-03-10T06:00:42.694Z,10.31
2019-03-10T06:01:43.888Z,10.30
2019-03-10T06:02:49.038Z,10.28
2019-03-10T06:03:54.323Z,10.29
2019-03-10T06:04:59.634Z,10.25
2019-03-10T06:06:04.858Z,10.27
2019-03-10T06:07:09.969Z,10.25
2019-03-10T06:08:15.317Z,10.18
2019-03-10T06:09:20.476Z,10.18
2019-03-10T06:10:25.551Z,10.23
2019-03-10T06:11:30.629Z,10.22
2019-03-10T06:12:35.668Z,10.22
2019-03-10T06:13:40.657Z,10.20
2019-03-10T06:14:45.793Z,10.20
2019-03-10T06:15:50.972Z,10.19
2019-03-10T06:16:55.973Z,10.20
2019-03-10T06:18:00.992Z,10.19
2019-03-10T06:19:06.043Z,10.20
2019-03-10T06:20:11.232Z,10.19
2019-03-10T06:21:16.556Z,10.18
2019-03-10T06:22:21.909Z,10.17
2019-03-10T06:23:27.461Z,10.17
2019-03-10T06:24:32.443Z,10.17
2019-03-10T06:25:37.519Z,10.16
2019-03-10T06:26:42.686Z,10.15
2019-03-10T06:27:47.994Z,10.15
2019-03-10T06:28:53.176Z,10.15
2019-03-10T06:29:58.191Z,10.15
2019-03-10T06:31:03.605Z,10.16
2019-03-10T06:32:08.550Z,10.17
2019-03-10T06:33:13.665Z,10.16
2019-03-10T06:34:18.679Z,10.13
2019-03-10T06:35:24.005Z,10.08
2019-03-10T06:36:29.025Z,10.08
2019-03-10T06:37:34.096Z,10.01
2019-03-10T06:38:39.376Z,9.95
2019-03-10T06:39:44.458Z,9.94
2019-03-10T06:40:49.561Z,9.89
2019-03-10T06:41:54.506Z,9.94
2019-03-10T06:42:59.627Z,9.95
2019-03-10T06:44:04.795Z,9.95
2019-03-10T06:45:10.214Z,9.98
2019-03-10T06:46:15.262Z,9.99
2019-03-10T06:47:20.530Z,10.00
2019-03-10T06:48:25.688Z,10.00
2019-03-10T06:49:30.636Z,10.01
2019-03-10T06:50:35.721Z,10.01
2019-03-10T06:51:41.248Z,10.01
2019-03-10T06:52:46.281Z,10.01
2019-03-10T06:53:51.348Z,10.01
2019-03-10T06:54:56.405Z,10.00
2019-03-10T06:56:01.471Z,10.00
2019-03-10T06:57:06.523Z,9.88
2019-03-10T06:58:11.813Z,9.88
2019-03-10T06:59:17.068Z,9.83
2019-03-10T07:00:22.140Z,9.79
2019-03-10T07:01:27.502Z,9.78
2019-03-10T07:02:32.618Z,9.78
2019-03-10T07:03:37.949Z,9.80
2019-03-10T07:04:43.017Z,9.80
2019-03-10T07:05:48.303Z,9.80
2019-03-10T07:06:53.353Z,9.81
2019-03-10T07:07:58.408Z,9.80
2019-03-10T07:09:05.388Z,9.81
2019-03-10T07:10:12.062Z,9.84
2019-03-10T07:11:17.170Z,9.84
2019-03-10T07:12:22.275Z,9.84
2019-03-10T07:13:27.639Z,9.84
2019-03-10T07:14:32.989Z,9.85
2019-03-10T07:15:38.113Z,9.85
2019-03-10T07:16:43.406Z,9.83
2019-03-10T07:17:48.506Z,9.88
2019-03-10T07:18:53.603Z,9.88
2019-03-10T07:19:58.867Z,9.89
2019-03-10T07:21:03.838Z,9.88
2019-03-10T07:22:09.009Z,9.87
2019-03-10T07:23:15.320Z,9.88
2019-03-10T07:24:20.282Z,9.87
2019-03-10T07:25:25.422Z,9.87
2019-03-10T07:26:30.426Z,9.88
2019-03-10T07:28:03.722Z,9.87
2019-03-10T07:29:30.042Z,9.89
2019-03-10T07:30:42.655Z,9.91
2019-03-10T07:31:52.465Z,9.89
2019-03-10T07:33:13.063Z,9.84
2019-03-10T07:34:36.067Z,9.84
2019-03-10T07:35:53.289Z,9.90
2019-03-10T07:37:15.974Z,9.92
2019-03-10T07:38:36.678Z,9.93
2019-03-10T07:40:03.879Z,9.92
2019-03-10T07:41:34.559Z,9.98
2019-03-10T07:43:01.884Z,10.00
2019-03-10T07:44:27.035Z,10.01
2019-03-10T07:46:06.042Z,10.03
2019-03-10T07:47:23.022Z,10.00
2019-03-10T07:48:51.130Z,10.01
2019-03-10T07:50:17.959Z,10.01
2019-03-10T07:51:30.130Z,10.00
2019-03-10T07:52:43.247Z,10.08
2019-03-10T07:54:16.851Z,10.08
2019-03-10T07:55:40.956Z,10.08
2019-03-10T07:57:01.268Z,10.08
2019-03-10T07:58:20.375Z,10.07
2019-03-10T07:59:53.473Z,10.07
2019-03-10T08:01:15.937Z,10.08
2019-03-10T08:02:40.242Z,10.06
2019-03-10T08:04:02.904Z,10.06
2019-03-10T08:05:25.801Z,10.05
2019-03-10T08:06:53.144Z,10.05
2019-03-10T08:08:04.751Z,10.08
2019-03-10T08:09:18.607Z,10.10
2019-03-10T08:10:54.673Z,10.14
2019-03-10T08:12:24.842Z,10.17
2019-03-10T08:13:51.699Z,10.23
2019-03-10T08:15:22.051Z,10.27
2019-03-10T08:16:52.339Z,10.28
2019-03-10T08:18:28.617Z,10.24
2019-03-10T08:19:51.419Z,10.11
2019-03-10T08:21:15.619Z,9.99
2019-03-10T08:22:51.701Z,9.97
2019-03-10T08:24:11.688Z,9.98
2019-03-10T08:25:26.423Z,10.03
2019-03-10T08:26:56.502Z,10.07
2019-03-10T08:28:08.924Z,10.07
2019-03-10T08:29:42.845Z,10.14
2019-03-10T08:31:07.003Z,10.14
2019-03-10T08:32:22.387Z,10.27
2019-03-10T08:34:01.617Z,10.33
2019-03-10T08:35:15.311Z,10.41
2019-03-10T08:36:42.403Z,10.51
2019-03-10T08:37:56.191Z,10.58
2019-03-10T08:39:19.844Z,10.66
2019-03-10T08:40:44.165Z,10.73
2019-03-10T08:42:20.134Z,10.74
2019-03-10T08:43:33.660Z,10.88
2019-03-10T08:45:00.800Z,10.93
2019-03-10T08:46:11.723Z,10.95
2019-03-10T08:47:23.922Z,11.01
2019-03-10T08:48:57.714Z,11.05
2019-03-10T08:50:30.066Z,11.10
2019-03-10T08:51:42.339Z,11.19
2019-03-10T08:52:55.743Z,11.19
2019-03-10T08:54:22.643Z,11.24
2019-03-10T08:55:49.922Z,11.28
2019-03-10T08:57:00.817Z,11.35
2019-03-10T08:58:15.812Z,11.42
2019-03-10T08:59:38.933Z,11.47
2019-03-10T09:01:01.755Z,11.53
2019-03-10T09:02:24.582Z,11.55
2019-03-10T09:03:47.801Z,11.59
2019-03-10T09:05:00.349Z,11.63
2019-03-10T09:06:12.028Z,11.70
2019-03-10T09:07:36.106Z,11.74
2019-03-10T09:09:03.612Z,11.78
2019-03-10T09:10:16.298Z,11.78
2019-03-10T09:11:40.339Z,11.86
2019-03-10T09:12:51.742Z,11.87
2019-03-10T09:14:05.843Z,11.91
2019-03-10T09:15:44.922Z,11.95
2019-03-10T09:17:07.552Z,12.00
2019-03-10T09:18:30.176Z,12.08
2019-03-10T09:20:00.198Z,12.13
2019-03-10T09:21:18.994Z,12.19
2019-03-10T09:22:55.324Z,12.22
2019-03-10T09:24:18.693Z,12.27
2019-03-10T09:25:32.761Z,12.32
2019-03-10T09:26:55.658Z,12.37
2019-03-10T09:28:18.573Z,12.40
2019-03-10T09:29:37.039Z,12.46
2019-03-10T09:31:03.896Z,12.49
2019-03-10T09:32:37.079Z,12.51
2019-03-10T09:33:50.279Z,12.52
2019-03-10T09:35:03.119Z,12.54
2019-03-10T09:36:20.380Z,12.53
2019-03-10T09:37:34.558Z,12.54
2019-03-10T09:38:58.564Z,12.59
2019-03-10T09:40:23.635Z,12.62
2019-03-10T09:41:38.595Z,12.63
2019-03-10T09:42:54.978Z,12.61
2019-03-10T09:44:12.789Z,12.58
2019-03-10T09:45:36.705Z,12.51
2019-03-10T09:46:47.585Z,12.48
2019-03-10T09:48:14.130Z,12.48
2019-03-10T09:49:29.877Z,12.49
2019-03-10T09:50:52.345Z,12.49
2019-03-10T09:52:14.270Z,12.48
2019-03-10T09:53:38.293Z,12.48
2019-03-10T09:55:01.058Z,12.54
2019-03-10T09:56:29.161Z,12.58
2019-03-10T09:57:51.530Z,12.58
2019-03-10T09:59:10.989Z,12.59
2019-03-10T10:00:23.532Z,12.60
2019-03-10T10:01:44.311Z,12.57
2019-03-10T10:03:07.015Z,12.56
2019-03-10T10:04:40.202Z,12.55
2019-03-10T10:05:57.698Z,12.55
2019-03-10T10:07:24.543Z,12.58
2019-03-10T10:08:51.222Z,12.62
2019-03-10T10:10:27.337Z,12.68
2019-03-10T10:11:44.488Z,12.72
2019-03-10T10:13:02.551Z,12.73
2019-03-10T10:14:32.896Z,12.75
2019-03-10T10:15:44.519Z,12.82
2019-03-10T10:17:03.574Z,12.90
2019-03-10T10:18:24.124Z,12.97
2019-03-10T10:19:36.297Z,13.07
2019-03-10T10:21:01.331Z,13.14
2019-03-10T10:22:19.402Z,13.20
2019-03-10T10:23:30.135Z,13.24
2019-03-10T10:24:50.284Z,13.26
2019-03-10T10:26:20.234Z,13.27
2019-03-10T10:27:53.765Z,13.26
2019-03-10T10:29:13.759Z,13.25
2019-03-10T10:30:44.172Z,13.23
2019-03-10T10:31:55.178Z,13.22
2019-03-10T10:33:16.588Z,13.21
2019-03-10T10:34:59.292Z,13.20
2019-03-10T10:36:17.854Z,13.21
2019-03-10T10:37:39.393Z,13.23
2019-03-10T10:39:02.176Z,13.23
2019-03-10T10:40:32.176Z,13.25
2019-03-10T10:41:59.606Z,13.27
2019-03-10T10:43:17.969Z,13.28
2019-03-10T10:44:38.402Z,13.30
2019-03-10T10:46:05.242Z,13.32
2019-03-10T10:47:28.350Z,13.34
2019-03-10T10:48:39.974Z,13.37
2019-03-10T10:49:56.112Z,13.41
2019-03-10T10:51:23.331Z,13.43
2019-03-10T10:52:40.472Z,13.48
2019-03-10T10:53:52.632Z,13.50
2019-03-10T10:55:21.256Z,13.54
2019-03-10T10:56:42.480Z,13.58
2019-03-10T10:58:06.454Z,13.63
2019-03-10T10:59:20.977Z,13.71
2019-03-10T11:00:54.249Z,13.84
2019-03-10T11:02:23.665Z,13.94
2019-03-10T11:03:44.516Z,14.06
2019-03-10T11:05:12.455Z,14.15
2019-03-10T11:06:32.993Z,14.20
2019-03-10T11:07:45.172Z,14.21
2019-03-10T11:09:02.697Z,14.21
2019-03-10T11:10:26.361Z,14.19
2019-03-10T11:11:50.543Z,14.12
2019-03-10T11:13:26.764Z,14.01
2019-03-10T11:14:45.334Z,13.94
2019-03-10T11:16:11.594Z,13.88
2019-03-10T11:17:23.781Z,13.86
2019-03-10T11:19:00.378Z,13.82
2019-03-10T11:20:17.934Z,13.81
2019-03-10T11:21:57.438Z,13.86
2019-03-10T11:23:12.298Z,13.89
2019-03-10T11:24:22.411Z,13.96
2019-03-10T11:25:31.856Z,14.03
2019-03-10T11:26:43.631Z,14.08
2019-03-10T11:28:07.846Z,14.13
2019-03-10T11:29:24.747Z,14.18
2019-03-10T11:30:47.548Z,14.23
2019-03-10T11:32:02.160Z,14.24
2019-03-10T11:33:24.319Z,14.25
2019-03-10T11:34:51.431Z,14.23
2019-03-10T11:36:14.415Z,14.22
2019-03-10T11:37:36.855Z,14.24
2019-03-10T11:38:57.545Z,14.26
2019-03-10T11:40:39.895Z,14.27
2019-03-10T11:41:56.264Z,14.26
2019-03-10T11:43:31.917Z,14.25
2019-03-10T11:45:00.433Z,14.23
2019-03-10T11:46:26.262Z,14.22
2019-03-10T11:47:43.938Z,14.23
2019-03-10T11:49:01.245Z,14.23
2019-03-10T11:50:32.214Z,14.23
2019-03-10T11:51:44.672Z,14.23
2019-03-10T11:53:18.366Z,14.25
2019-03-10T11:54:33.669Z,14.25
2019-03-10T11:55:56.370Z,14.28
2019-03-10T11:57:23.298Z,14.34
2019-03-10T11:58:36.863Z,14.37
2019-03-10T11:59:46.136Z,14.42
2019-03-10T12:01:10.246Z,14.44
2019-03-10T12:02:34.596Z,14.43
2019-03-10T12:03:49.693Z,14.39
2019-03-10T12:05:02.459Z,14.31
2019-03-10T12:06:26.978Z,14.29
2019-03-10T12:07:45.854Z,14.28
2019-03-10T12:09:10.046Z,14.28
2019-03-10T12:10:15.226Z,14.31
2019-03-10T12:11:20.749Z,14.34
2019-03-10T12:12:25.926Z,14.38
2019-03-10T12:13:31.750Z,14.41
2019-03-10T12:14:36.830Z,14.42
2019-03-10T12:15:42.100Z,14.42
2019-03-10T12:16:47.528Z,14.40
2019-03-10T12:17:53.269Z,14.40
2019-03-10T12:18:58.907Z,14.41
2019-03-10T12:20:04.427Z,14.40
2019-03-10T12:21:10.107Z,14.35
2019-03-10T12:22:15.498Z,14.33
2019-03-10T12:23:30.029Z,14.31
2019-03-10T12:24:35.974Z,14.32
2019-03-10T12:25:41.423Z,14.33
2019-03-10T12:26:46.541Z,14.32
2019-03-10T12:27:51.792Z,14.32
2019-03-10T12:28:56.913Z,14.33
2019-03-10T12:30:05.987Z,14.33
2019-03-10T12:31:11.034Z,14.34
2019-03-10T12:32:16.305Z,14.31
2019-03-10T12:33:21.713Z,14.28
2019-03-10T12:34:26.939Z,14.25
2019-03-10T12:35:34.568Z,14.15
2019-03-10T12:36:39.099Z,14.04
2019-03-10T12:37:44.419Z,13.93
2019-03-10T12:38:49.453Z,13.88
2019-03-10T12:39:55.164Z,13.81
2019-03-10T12:41:00.785Z,13.72
2019-03-10T12:42:06.819Z,13.63
2019-03-10T12:43:12.179Z,13.53
2019-03-10T12:44:17.609Z,13.44
2019-03-10T12:45:23.542Z,13.34
2019-03-10T12:46:28.996Z,13.23
2019-03-10T12:47:34.805Z,13.16
2019-03-10T12:48:40.453Z,13.08
2019-03-10T12:49:45.780Z,13.00
2019-03-10T12:50:51.730Z,12.94
2019-03-10T12:51:57.008Z,12.89
2019-03-10T12:53:02.422Z,12.83
2019-03-10T12:54:07.659Z,12.75
2019-03-10T12:55:13.056Z,12.71
2019-03-10T12:56:18.641Z,12.69
2019-03-10T12:57:24.161Z,12.69
2019-03-10T12:58:32.711Z,12.67
2019-03-10T12:59:38.086Z,12.63
2019-03-10T13:00:43.169Z,12.58
2019-03-10T13:01:48.269Z,12.54
2019-03-10T13:02:54.329Z,12.53
2019-03-10T13:03:59.529Z,12.54
2019-03-10T13:05:04.804Z,12.54
2019-03-10T13:06:10.283Z,12.57
2019-03-10T13:07:15.514Z,12.60
2019-03-10T13:08:20.861Z,12.64
2019-03-10T13:09:26.259Z,12.71
2019-03-10T13:10:31.353Z,12.79
2019-03-10T13:11:36.538Z,12.87
2019-03-10T13:12:42.123Z,12.93
2019-03-10T13:13:47.563Z,12.97
2019-03-10T13:14:59.520Z,13.01
2019-03-10T13:16:00.442Z,13.04
2019-03-10T13:17:05.734Z,13.04
2019-03-10T13:18:10.861Z,13.10
2019-03-10T13:19:15.893Z,13.15
2019-03-10T13:20:28.225Z,13.20
2019-03-10T13:21:28.721Z,13.24
2019-03-10T13:22:34.133Z,13.27
2019-03-10T13:23:39.405Z,13.28
2019-03-10T13:24:44.959Z,13.30
2019-03-10T13:25:50.834Z,13.31
2019-03-10T13:26:56.475Z,13.35
2019-03-10T13:28:01.469Z,13.38
2019-03-10T13:29:06.584Z,13.42
2019-03-10T13:30:12.046Z,13.46
2019-03-10T13:31:17.523Z,13.54
2019-03-10T13:32:23.253Z,13.58
2019-03-10T13:33:28.698Z,13.60
2019-03-10T13:34:33.728Z,13.60
2019-03-10T13:35:38.800Z,13.61
2019-03-10T13:36:44.260Z,13.60
2019-03-10T13:37:49.862Z,13.62
2019-03-10T13:38:55.509Z,13.65
2019-03-10T13:40:00.741Z,13.70
2019-03-10T13:41:06.396Z,13.71
2019-03-10T13:42:11.812Z,13.69
2019-03-10T13:43:17.145Z,13.66
2019-03-10T13:44:24.718Z,13.65
2019-03-10T13:45:29.454Z,13.64
2019-03-10T13:46:34.924Z,13.63
2019-03-10T13:47:40.336Z,13.61
2019-03-10T13:48:45.550Z,13.63
2019-03-10T13:49:50.523Z,13.64
2019-03-10T13:50:55.949Z,13.62
2019-03-10T13:52:01.143Z,13.59
2019-03-10T13:53:06.251Z,13.60
2019-03-10T13:54:11.305Z,13.58
2019-03-10T13:55:16.608Z,13.58
2019-03-10T13:56:21.839Z,13.58
2019-03-10T13:57:27.048Z,13.58
2019-03-10T13:58:32.327Z,13.58
2019-03-10T13:59:37.657Z,13.59
2019-03-10T14:00:42.857Z,13.59
2019-03-10T14:01:48.261Z,13.59
2019-03-10T14:02:53.928Z,13.58
2019-03-10T14:04:00.195Z,13.57
2019-03-10T14:05:06.172Z,13.55
2019-03-10T14:06:11.462Z,13.53
2019-03-10T14:07:16.667Z,13.50
2019-03-10T14:08:21.870Z,13.48
2019-03-10T14:09:27.317Z,13.47
2019-03-10T14:10:33.138Z,13.45
2019-03-10T14:11:38.844Z,13.44
2019-03-10T14:12:44.072Z,13.41
2019-03-10T14:13:49.743Z,13.40
2019-03-10T14:14:54.887Z,13.38
2019-03-10T14:16:00.169Z,13.38
2019-03-10T14:17:05.509Z,13.37
2019-03-10T14:18:10.690Z,13.36
2019-03-10T14:19:15.776Z,13.38
2019-03-10T14:20:21.458Z,13.35
2019-03-10T14:21:26.842Z,13.31
2019-03-10T14:22:32.155Z,13.30
2019-03-10T14:23:37.413Z,13.28
2019-03-10T14:24:42.803Z,13.24
2019-03-10T14:25:48.065Z,13.22
2019-03-10T14:26:53.485Z,13.19
2019-03-10T14:27:58.544Z,13.15
2019-03-10T14:29:03.663Z,13.15
2019-03-10T14:30:09.501Z,13.14
2019-03-10T14:31:14.669Z,13.10
2019-03-10T14:32:20.126Z,13.03
2019-03-10T14:33:25.378Z,12.97
2019-03-10T14:34:30.707Z,12.90
2019-03-10T14:35:36.077Z,12.84
2019-03-10T14:36:41.399Z,12.80
2019-03-10T14:37:46.597Z,12.75
2019-03-10T14:38:51.684Z,12.72
2019-03-10T14:39:56.867Z,12.67
2019-03-10T14:41:02.165Z,12.63
2019-03-10T14:42:07.227Z,12.61
2019-03-10T14:43:12.577Z,12.57
2019-03-10T14:44:18.144Z,12.55
2019-03-10T14:45:23.366Z,12.53
2019-03-10T14:46:28.829Z,12.48
2019-03-10T14:47:33.887Z,12.45
2019-03-10T14:48:39.063Z,12.43
2019-03-10T14:49:44.456Z,12.43
2019-03-10T14:50:49.813Z,12.44
2019-03-10T14:51:54.995Z,12.46
2019-03-10T14:53:00.455Z,12.41
2019-03-10T14:54:05.776Z,12.39
2019-03-10T14:55:12.071Z,12.38
2019-03-10T14:56:17.274Z,12.36
2019-03-10T14:57:22.597Z,12.34
2019-03-10T14:58:28.139Z,12.34
2019-03-10T14:59:33.703Z,12.31
2019-03-10T15:00:38.926Z,12.30
2019-03-10T15:01:44.440Z,12.29
2019-03-10T15:02:49.631Z,12.28
2019-03-10T15:03:55.026Z,12.26
2019-03-10T15:05:00.395Z,12.23
2019-03-10T15:06:05.549Z,12.18
2019-03-10T15:07:10.587Z,12.16
2019-03-10T15:08:15.746Z,12.13
2019-03-10T15:09:20.941Z,12.12
2019-03-10T15:10:26.661Z,12.11